Terminal Aerodrome Forecast
Issued by NWS

Current Version | Previous Version | Graphics & Text | Print | Product List | Glossary On
Versions: 1 2 3 4 5 6 7 8 9 10 11 12 13 14 15 16 17 18 19 20 21 22 23 24
000
FTUS41 KRLX 252345
TAFCKB
TAF
KCKB 252345Z 2600/2624 25005KT P6SM VCTS BKN050CB
     FM260400 00000KT 5SM BR VCTS BKN050CB
     FM260900 00000KT 1SM BR BKN001
     FM261200 00000KT 3SM BR BKN003
     FM261400 00000KT P6SM BKN120
     FM262100 30006KT P6SM BKN090=

USA.gov is the U.S. government's official web portal to all federal, state and local government web resources and services.